sensor_id;sensor_type;location;lat;lon;timestamp;P1;durP1;ratioP1;P2;durP2;ratioP2
3131;SDS011;62090;52.330;9.104;2023-02-12T00:01:31;19.13;;;8.50;;
3131;SDS011;62090;52.330;9.104;2023-02-12T00:04:01;19.80;;;8.87;;
3131;SDS011;62090;52.330;9.104;2023-02-12T00:06:31;17.47;;;7.80;;
3131;SDS011;62090;52.330;9.104;2023-02-12T00:09:01;21.47;;;8.97;;
3131;SDS011;62090;52.330;9.104;2023-02-12T00:11:31;14.93;;;7.77;;
3131;SDS011;62090;52.330;9.104;2023-02-12T00:14:01;26.80;;;9.60;;
3131;SDS011;62090;52.330;9.104;2023-02-12T00:16:34;22.60;;;8.30;;
3131;SDS011;62090;52.330;9.104;2023-02-12T00:19:04;17.63;;;8.20;;
3131;SDS011;62090;52.330;9.104;2023-02-12T00:21:34;13.30;;;7.87;;
3131;SDS011;62090;52.330;9.104;2023-02-12T00:24:04;20.73;;;8.77;;
3131;SDS011;62090;52.330;9.104;2023-02-12T00:26:34;18.20;;;8.00;;
3131;SDS011;62090;52.330;9.104;2023-02-12T00:29:05;21.93;;;7.40;;
3131;SDS011;62090;52.330;9.104;2023-02-12T00:31:37;17.33;;;8.20;;
3131;SDS011;62090;52.330;9.104;2023-02-12T00:34:08;16.53;;;7.20;;
3131;SDS011;62090;52.330;9.104;2023-02-12T00:36:39;17.50;;;7.50;;
3131;SDS011;62090;52.330;9.104;2023-02-12T00:39:09;16.67;;;7.00;;
3131;SDS011;62090;52.330;9.104;2023-02-12T00:41:39;21.73;;;7.07;;
3131;SDS011;62090;52.330;9.104;2023-02-12T00:44:09;17.00;;;8.13;;
3131;SDS011;62090;52.330;9.104;2023-02-12T00:46:41;14.17;;;7.57;;
3131;SDS011;62090;52.330;9.104;2023-02-12T00:49:11;24.43;;;7.37;;
3131;SDS011;62090;52.330;9.104;2023-02-12T00:51:41;23.30;;;7.37;;
3131;SDS011;62090;52.330;9.104;2023-02-12T00:54:11;21.03;;;8.77;;
3131;SDS011;62090;52.330;9.104;2023-02-12T00:56:41;21.00;;;7.40;;
3131;SDS011;62090;52.330;9.104;2023-02-12T00:59:10;15.73;;;8.40;;
3131;SDS011;62090;52.330;9.104;2023-02-12T01:01:43;25.30;;;8.50;;
3131;SDS011;62090;52.330;9.104;2023-02-12T01:04:14;14.23;;;7.30;;
3131;SDS011;62090;52.330;9.104;2023-02-12T01:06:43;13.70;;;8.00;;
3131;SDS011;62090;52.330;9.104;2023-02-12T01:09:13;19.47;;;9.40;;
3131;SDS011;62090;52.330;9.104;2023-02-12T01:11:43;18.73;;;8.70;;
3131;SDS011;62090;52.330;9.104;2023-02-12T01:14:14;19.03;;;8.57;;
3131;SDS011;62090;52.330;9.104;2023-02-12T01:16:47;19.03;;;8.77;;
3131;SDS011;62090;52.330;9.104;2023-02-12T01:19:17;21.47;;;9.60;;
3131;SDS011;62090;52.330;9.104;2023-02-12T01:21:48;25.33;;;8.43;;
3131;SDS011;62090;52.330;9.104;2023-02-12T01:24:18;18.00;;;8.70;;
3131;SDS011;62090;52.330;9.104;2023-02-12T01:26:48;14.43;;;9.13;;
3131;SDS011;62090;52.330;9.104;2023-02-12T01:29:17;20.20;;;9.90;;
3131;SDS011;62090;52.330;9.104;2023-02-12T01:31:50;19.20;;;10.67;;
3131;SDS011;62090;52.330;9.104;2023-02-12T01:34:20;15.07;;;9.90;;
3131;SDS011;62090;52.330;9.104;2023-02-12T01:36:51;21.37;;;10.37;;
3131;SDS011;62090;52.330;9.104;2023-02-12T01:39:20;17.70;;;11.03;;
3131;SDS011;62090;52.330;9.104;2023-02-12T01:41:50;24.83;;;10.70;;
3131;SDS011;62090;52.330;9.104;2023-02-12T01:44:20;27.33;;;12.47;;
3131;SDS011;62090;52.330;9.104;2023-02-12T01:46:56;25.83;;;12.40;;
3131;SDS011;62090;52.330;9.104;2023-02-12T01:49:28;17.80;;;10.43;;
3131;SDS011;62090;52.330;9.104;2023-02-12T01:52:04;30.67;;;12.20;;
3131;SDS011;62090;52.330;9.104;2023-02-12T01:54:37;25.47;;;12.57;;
3131;SDS011;62090;52.330;9.104;2023-02-12T01:57:07;27.70;;;12.77;;
3131;SDS011;62090;52.330;9.104;2023-02-12T01:59:40;46.00;;;12.67;;
3131;SDS011;62090;52.330;9.104;2023-02-12T02:02:14;27.33;;;12.03;;
3131;SDS011;62090;52.330;9.104;2023-02-12T02:04:47;27.73;;;12.90;;
3131;SDS011;62090;52.330;9.104;2023-02-12T02:07:20;32.07;;;13.20;;
3131;SDS011;62090;52.330;9.104;2023-02-12T02:09:49;27.93;;;14.03;;
3131;SDS011;62090;52.330;9.104;2023-02-12T02:12:20;30.13;;;13.40;;
3131;SDS011;62090;52.330;9.104;2023-02-12T02:15:03;24.60;;;13.43;;
3131;SDS011;62090;52.330;9.104;2023-02-12T02:17:40;31.00;;;14.07;;
3131;SDS011;62090;52.330;9.104;2023-02-12T02:23:44;24.60;;;13.47;;
3131;SDS011;62090;52.330;9.104;2023-02-12T02:26:39;31.80;;;14.30;;
3131;SDS011;62090;52.330;9.104;2023-02-12T02:29:35;29.70;;;15.47;;
3131;SDS011;62090;52.330;9.104;2023-02-12T02:32:17;32.17;;;15.43;;
3131;SDS011;62090;52.330;9.104;2023-02-12T02:34:54;28.23;;;13.33;;
3131;SDS011;62090;52.330;9.104;2023-02-12T02:37:30;31.73;;;15.30;;
3131;SDS011;62090;52.330;9.104;2023-02-12T02:40:04;34.93;;;17.20;;
3131;SDS011;62090;52.330;9.104;2023-02-12T02:42:41;30.50;;;15.90;;
3131;SDS011;62090;52.330;9.104;2023-02-12T02:45:15;26.83;;;15.17;;
3131;SDS011;62090;52.330;9.104;2023-02-12T02:47:53;32.03;;;16.40;;
3131;SDS011;62090;52.330;9.104;2023-02-12T02:50:27;30.27;;;17.07;;
3131;SDS011;62090;52.330;9.104;2023-02-12T02:53:00;31.63;;;16.27;;
3131;SDS011;62090;52.330;9.104;2023-02-12T02:55:34;39.60;;;17.00;;
3131;SDS011;62090;52.330;9.104;2023-02-12T02:58:09;42.97;;;16.47;;
3131;SDS011;62090;52.330;9.104;2023-02-12T03:00:43;35.60;;;17.20;;
3131;SDS011;62090;52.330;9.104;2023-02-12T03:03:20;31.80;;;17.00;;
3131;SDS011;62090;52.330;9.104;2023-02-12T03:05:55;30.00;;;17.23;;
3131;SDS011;62090;52.330;9.104;2023-02-12T03:08:32;32.10;;;17.00;;
3131;SDS011;62090;52.330;9.104;2023-02-12T03:11:06;35.67;;;16.90;;
3131;SDS011;62090;52.330;9.104;2023-02-12T03:13:41;32.50;;;18.80;;
3131;SDS011;62090;52.330;9.104;2023-02-12T03:16:17;33.87;;;17.50;;
3131;SDS011;62090;52.330;9.104;2023-02-12T03:18:54;36.27;;;17.00;;
3131;SDS011;62090;52.330;9.104;2023-02-12T03:21:30;32.20;;;16.90;;
3131;SDS011;62090;52.330;9.104;2023-02-12T03:24:09;38.80;;;18.97;;
3131;SDS011;62090;52.330;9.104;2023-02-12T03:26:45;34.93;;;16.17;;
3131;SDS011;62090;52.330;9.104;2023-02-12T03:29:18;35.73;;;18.07;;
3131;SDS011;62090;52.330;9.104;2023-02-12T03:31:52;34.20;;;17.97;;
3131;SDS011;62090;52.330;9.104;2023-02-12T03:34:37;36.27;;;16.83;;
3131;SDS011;62090;52.330;9.104;2023-02-12T03:37:16;32.20;;;18.07;;
3131;SDS011;62090;52.330;9.104;2023-02-12T03:39:51;39.50;;;16.87;;
3131;SDS011;62090;52.330;9.104;2023-02-12T03:42:28;34.57;;;19.10;;
3131;SDS011;62090;52.330;9.104;2023-02-12T03:45:03;30.63;;;17.77;;
3131;SDS011;62090;52.330;9.104;2023-02-12T03:47:40;35.30;;;16.90;;
3131;SDS011;62090;52.330;9.104;2023-02-12T03:50:18;39.23;;;18.23;;
3131;SDS011;62090;52.330;9.104;2023-02-12T03:52:53;43.60;;;18.10;;
3131;SDS011;62090;52.330;9.104;2023-02-12T03:55:22;42.90;;;18.13;;
3131;SDS011;62090;52.330;9.104;2023-02-12T03:57:53;32.00;;;16.60;;
3131;SDS011;62090;52.330;9.104;2023-02-12T04:00:28;47.10;;;17.97;;
3131;SDS011;62090;52.330;9.104;2023-02-12T04:02:58;34.20;;;17.57;;
3131;SDS011;62090;52.330;9.104;2023-02-12T04:05:31;40.73;;;18.00;;
3131;SDS011;62090;52.330;9.104;2023-02-12T04:08:01;31.87;;;16.80;;
3131;SDS011;62090;52.330;9.104;2023-02-12T04:10:38;49.77;;;18.60;;
3131;SDS011;62090;52.330;9.104;2023-02-12T04:13:16;42.93;;;18.70;;
3131;SDS011;62090;52.330;9.104;2023-02-12T04:15:56;44.17;;;17.50;;
3131;SDS011;62090;52.330;9.104;2023-02-12T04:18:41;39.03;;;20.07;;
3131;SDS011;62090;52.330;9.104;2023-02-12T04:21:20;39.17;;;18.70;;
3131;SDS011;62090;52.330;9.104;2023-02-12T04:24:04;36.07;;;18.07;;
3131;SDS011;62090;52.330;9.104;2023-02-12T04:26:45;42.57;;;18.83;;
3131;SDS011;62090;52.330;9.104;2023-02-12T04:29:19;38.43;;;16.83;;
3131;SDS011;62090;52.330;9.104;2023-02-12T04:32:00;41.87;;;18.07;;
3131;SDS011;62090;52.330;9.104;2023-02-12T04:34:36;36.60;;;17.87;;
3131;SDS011;62090;52.330;9.104;2023-02-12T04:37:17;38.47;;;18.00;;
3131;SDS011;62090;52.330;9.104;2023-02-12T04:39:50;34.23;;;18.97;;
3131;SDS011;62090;52.330;9.104;2023-02-12T04:42:21;39.20;;;19.03;;
3131;SDS011;62090;52.330;9.104;2023-02-12T04:44:51;42.67;;;20.40;;
3131;SDS011;62090;52.330;9.104;2023-02-12T04:47:21;38.27;;;20.40;;
3131;SDS011;62090;52.330;9.104;2023-02-12T04:49:51;38.13;;;20.00;;
3131;SDS011;62090;52.330;9.104;2023-02-12T04:52:23;43.50;;;20.03;;
3131;SDS011;62090;52.330;9.104;2023-02-12T04:54:53;50.47;;;22.53;;
3131;SDS011;62090;52.330;9.104;2023-02-12T04:57:22;46.20;;;24.40;;
3131;SDS011;62090;52.330;9.104;2023-02-12T04:59:52;45.37;;;26.53;;
3131;SDS011;62090;52.330;9.104;2023-02-12T05:02:22;55.23;;;27.07;;
3131;SDS011;62090;52.330;9.104;2023-02-12T05:04:52;63.57;;;27.13;;
3131;SDS011;62090;52.330;9.104;2023-02-12T05:07:24;52.70;;;26.77;;
3131;SDS011;62090;52.330;9.104;2023-02-12T05:09:54;65.53;;;28.47;;
3131;SDS011;62090;52.330;9.104;2023-02-12T05:12:24;58.40;;;29.70;;
3131;SDS011;62090;52.330;9.104;2023-02-12T05:14:54;52.40;;;29.17;;
3131;SDS011;62090;52.330;9.104;2023-02-12T05:17:23;59.23;;;28.27;;
3131;SDS011;62090;52.330;9.104;2023-02-12T05:19:53;56.27;;;29.33;;
3131;SDS011;62090;52.330;9.104;2023-02-12T05:22:25;66.87;;;30.07;;
3131;SDS011;62090;52.330;9.104;2023-02-12T05:24:55;62.03;;;29.50;;
3131;SDS011;62090;52.330;9.104;2023-02-12T05:27:25;61.87;;;31.20;;
3131;SDS011;62090;52.330;9.104;2023-02-12T05:29:55;59.33;;;31.40;;
3131;SDS011;62090;52.330;9.104;2023-02-12T05:32:24;68.33;;;29.13;;
3131;SDS011;62090;52.330;9.104;2023-02-12T05:34:54;67.73;;;32.40;;
3131;SDS011;62090;52.330;9.104;2023-02-12T05:37:26;60.67;;;31.20;;
3131;SDS011;62090;52.330;9.104;2023-02-12T05:39:57;72.00;;;32.03;;
3131;SDS011;62090;52.330;9.104;2023-02-12T05:42:27;70.47;;;30.37;;
3131;SDS011;62090;52.330;9.104;2023-02-12T05:44:57;66.20;;;30.97;;
3131;SDS011;62090;52.330;9.104;2023-02-12T05:47:27;62.83;;;30.43;;
3131;SDS011;62090;52.330;9.104;2023-02-12T05:49:57;64.07;;;30.87;;
3131;SDS011;62090;52.330;9.104;2023-02-12T05:52:29;65.73;;;31.60;;
3131;SDS011;62090;52.330;9.104;2023-02-12T05:54:59;54.80;;;29.80;;
3131;SDS011;62090;52.330;9.104;2023-02-12T05:57:28;70.20;;;30.53;;
3131;SDS011;62090;52.330;9.104;2023-02-12T05:59:58;73.33;;;30.77;;
3131;SDS011;62090;52.330;9.104;2023-02-12T06:02:37;71.13;;;30.57;;
3131;SDS011;62090;52.330;9.104;2023-02-12T06:05:07;64.33;;;30.63;;
3131;SDS011;62090;52.330;9.104;2023-02-12T06:07:39;65.33;;;30.43;;
3131;SDS011;62090;52.330;9.104;2023-02-12T06:10:09;75.20;;;30.47;;
3131;SDS011;62090;52.330;9.104;2023-02-12T06:12:39;70.87;;;28.70;;
3131;SDS011;62090;52.330;9.104;2023-02-12T06:15:09;60.93;;;28.47;;
3131;SDS011;62090;52.330;9.104;2023-02-12T06:17:39;58.37;;;28.67;;
3131;SDS011;62090;52.330;9.104;2023-02-12T06:20:09;71.97;;;29.43;;
3131;SDS011;62090;52.330;9.104;2023-02-12T06:22:41;68.43;;;30.87;;
3131;SDS011;62090;52.330;9.104;2023-02-12T06:25:11;67.60;;;29.57;;
3131;SDS011;62090;52.330;9.104;2023-02-12T06:27:40;69.43;;;27.50;;
3131;SDS011;62090;52.330;9.104;2023-02-12T06:30:11;64.53;;;29.60;;
3131;SDS011;62090;52.330;9.104;2023-02-12T06:32:41;70.00;;;30.30;;
3131;SDS011;62090;52.330;9.104;2023-02-12T06:35:11;67.13;;;30.30;;
3131;SDS011;62090;52.330;9.104;2023-02-12T06:37:43;72.87;;;32.73;;
3131;SDS011;62090;52.330;9.104;2023-02-12T06:40:13;66.70;;;30.47;;
3131;SDS011;62090;52.330;9.104;2023-02-12T06:42:43;75.07;;;31.67;;
3131;SDS011;62090;52.330;9.104;2023-02-12T06:45:15;75.30;;;30.97;;
3131;SDS011;62090;52.330;9.104;2023-02-12T06:47:45;72.47;;;30.73;;
3131;SDS011;62090;52.330;9.104;2023-02-12T06:50:15;67.57;;;28.80;;
3131;SDS011;62090;52.330;9.104;2023-02-12T06:52:48;67.67;;;28.80;;
3131;SDS011;62090;52.330;9.104;2023-02-12T06:55:17;58.70;;;29.30;;
3131;SDS011;62090;52.330;9.104;2023-02-12T06:57:47;70.67;;;29.77;;
3131;SDS011;62090;52.330;9.104;2023-02-12T07:00:17;69.23;;;28.77;;
3131;SDS011;62090;52.330;9.104;2023-02-12T07:02:52;62.20;;;28.13;;
3131;SDS011;62090;52.330;9.104;2023-02-12T07:05:22;57.27;;;28.70;;
3131;SDS011;62090;52.330;9.104;2023-02-12T07:07:55;66.30;;;28.27;;
3131;SDS011;62090;52.330;9.104;2023-02-12T07:10:25;54.70;;;28.23;;
3131;SDS011;62090;52.330;9.104;2023-02-12T07:12:54;67.57;;;27.67;;
3131;SDS011;62090;52.330;9.104;2023-02-12T07:15:24;52.10;;;26.60;;
3131;SDS011;62090;52.330;9.104;2023-02-12T07:17:54;58.23;;;27.93;;
3131;SDS011;62090;52.330;9.104;2023-02-12T07:20:24;62.93;;;28.70;;
3131;SDS011;62090;52.330;9.104;2023-02-12T07:22:56;64.13;;;28.10;;
3131;SDS011;62090;52.330;9.104;2023-02-12T07:25:26;66.73;;;28.90;;
3131;SDS011;62090;52.330;9.104;2023-02-12T07:27:56;56.23;;;25.20;;
3131;SDS011;62090;52.330;9.104;2023-02-12T07:30:25;59.37;;;26.07;;
3131;SDS011;62090;52.330;9.104;2023-02-12T07:32:55;54.53;;;27.43;;
3131;SDS011;62090;52.330;9.104;2023-02-12T07:35:25;64.80;;;27.13;;
3131;SDS011;62090;52.330;9.104;2023-02-12T07:37:58;49.97;;;25.80;;
3131;SDS011;62090;52.330;9.104;2023-02-12T07:40:27;68.73;;;28.50;;
3131;SDS011;62090;52.330;9.104;2023-02-12T07:42:57;60.53;;;27.83;;
3131;SDS011;62090;52.330;9.104;2023-02-12T07:45:27;61.13;;;27.93;;
3131;SDS011;62090;52.330;9.104;2023-02-12T07:47:56;55.33;;;26.60;;
3131;SDS011;62090;52.330;9.104;2023-02-12T07:50:26;51.60;;;26.40;;
3131;SDS011;62090;52.330;9.104;2023-02-12T07:52:58;60.07;;;26.70;;
3131;SDS011;62090;52.330;9.104;2023-02-12T07:55:28;53.07;;;26.87;;
3131;SDS011;62090;52.330;9.104;2023-02-12T07:57:58;52.10;;;25.87;;
3131;SDS011;62090;52.330;9.104;2023-02-12T08:00:27;45.70;;;23.87;;
3131;SDS011;62090;52.330;9.104;2023-02-12T08:02:57;51.70;;;26.50;;
3131;SDS011;62090;52.330;9.104;2023-02-12T08:05:27;55.40;;;27.90;;
3131;SDS011;62090;52.330;9.104;2023-02-12T08:07:59;61.93;;;29.23;;
3131;SDS011;62090;52.330;9.104;2023-02-12T08:10:29;55.17;;;29.67;;
3131;SDS011;62090;52.330;9.104;2023-02-12T08:12:58;60.00;;;32.83;;
3131;SDS011;62090;52.330;9.104;2023-02-12T08:15:28;66.03;;;32.00;;
3131;SDS011;62090;52.330;9.104;2023-02-12T08:17:58;61.33;;;33.97;;
3131;SDS011;62090;52.330;9.104;2023-02-12T08:20:28;62.30;;;33.87;;
3131;SDS011;62090;52.330;9.104;2023-02-12T08:23:00;64.73;;;32.00;;
3131;SDS011;62090;52.330;9.104;2023-02-12T08:25:30;69.17;;;34.77;;
3131;SDS011;62090;52.330;9.104;2023-02-12T08:28:00;65.03;;;32.10;;
3131;SDS011;62090;52.330;9.104;2023-02-12T08:30:30;64.90;;;30.87;;
3131;SDS011;62090;52.330;9.104;2023-02-12T08:32:59;58.97;;;30.23;;
3131;SDS011;62090;52.330;9.104;2023-02-12T08:35:29;55.13;;;29.83;;
3131;SDS011;62090;52.330;9.104;2023-02-12T08:38:01;59.47;;;31.93;;
3131;SDS011;62090;52.330;9.104;2023-02-12T08:40:32;58.10;;;30.90;;
3131;SDS011;62090;52.330;9.104;2023-02-12T08:43:01;59.70;;;30.07;;
3131;SDS011;62090;52.330;9.104;2023-02-12T08:45:31;60.63;;;31.13;;
3131;SDS011;62090;52.330;9.104;2023-02-12T08:48:01;60.70;;;29.93;;
3131;SDS011;62090;52.330;9.104;2023-02-12T08:50:32;66.13;;;32.33;;
3131;SDS011;62090;52.330;9.104;2023-02-12T08:53:05;63.23;;;30.70;;
3131;SDS011;62090;52.330;9.104;2023-02-12T08:55:35;61.53;;;30.47;;
3131;SDS011;62090;52.330;9.104;2023-02-12T08:58:05;61.37;;;30.40;;
3131;SDS011;62090;52.330;9.104;2023-02-12T09:00:35;60.90;;;28.53;;
3131;SDS011;62090;52.330;9.104;2023-02-12T09:03:06;65.60;;;30.17;;
3131;SDS011;62090;52.330;9.104;2023-02-12T09:05:37;66.90;;;31.60;;
3131;SDS011;62090;52.330;9.104;2023-02-12T09:08:10;63.67;;;31.63;;
3131;SDS011;62090;52.330;9.104;2023-02-12T09:10:39;61.30;;;31.03;;
3131;SDS011;62090;52.330;9.104;2023-02-12T09:13:10;60.13;;;31.00;;
3131;SDS011;62090;52.330;9.104;2023-02-12T09:15:42;56.00;;;30.03;;
3131;SDS011;62090;52.330;9.104;2023-02-12T09:18:13;63.60;;;29.77;;
3131;SDS011;62090;52.330;9.104;2023-02-12T09:20:43;57.70;;;28.87;;
3131;SDS011;62090;52.330;9.104;2023-02-12T09:23:15;62.83;;;30.73;;
3131;SDS011;62090;52.330;9.104;2023-02-12T09:25:45;53.77;;;27.80;;
3131;SDS011;62090;52.330;9.104;2023-02-12T09:28:15;57.57;;;29.43;;
3131;SDS011;62090;52.330;9.104;2023-02-12T09:30:45;52.73;;;29.13;;
3131;SDS011;62090;52.330;9.104;2023-02-12T09:33:15;58.57;;;28.63;;
3131;SDS011;62090;52.330;9.104;2023-02-12T09:35:45;60.07;;;29.93;;
3131;SDS011;62090;52.330;9.104;2023-02-12T09:38:17;55.90;;;29.27;;
3131;SDS011;62090;52.330;9.104;2023-02-12T09:40:49;63.10;;;29.10;;
3131;SDS011;62090;52.330;9.104;2023-02-12T09:43:36;57.20;;;30.47;;
3131;SDS011;62090;52.330;9.104;2023-02-12T09:46:14;56.10;;;28.70;;
3131;SDS011;62090;52.330;9.104;2023-02-12T09:48:52;54.20;;;30.20;;
3131;SDS011;62090;52.330;9.104;2023-02-12T09:51:28;58.57;;;29.63;;
3131;SDS011;62090;52.330;9.104;2023-02-12T09:54:04;55.07;;;29.87;;
3131;SDS011;62090;52.330;9.104;2023-02-12T09:56:36;51.43;;;29.37;;
3131;SDS011;62090;52.330;9.104;2023-02-12T09:59:10;55.00;;;28.43;;
3131;SDS011;62090;52.330;9.104;2023-02-12T10:01:46;45.17;;;27.53;;
3131;SDS011;62090;52.330;9.104;2023-02-12T10:04:16;50.33;;;28.27;;
3131;SDS011;62090;52.330;9.104;2023-02-12T10:06:47;47.90;;;29.07;;
3131;SDS011;62090;52.330;9.104;2023-02-12T10:09:31;51.73;;;30.80;;
3131;SDS011;62090;52.330;9.104;2023-02-12T10:12:14;51.53;;;30.77;;
3131;SDS011;62090;52.330;9.104;2023-02-12T10:14:56;53.07;;;29.83;;
3131;SDS011;62090;52.330;9.104;2023-02-12T10:17:39;56.27;;;31.70;;
3131;SDS011;62090;52.330;9.104;2023-02-12T10:20:25;59.03;;;31.30;;
3131;SDS011;62090;52.330;9.104;2023-02-12T10:23:11;51.87;;;32.00;;
3131;SDS011;62090;52.330;9.104;2023-02-12T10:25:54;51.40;;;31.27;;
3131;SDS011;62090;52.330;9.104;2023-02-12T10:28:27;54.30;;;31.57;;
3131;SDS011;62090;52.330;9.104;2023-02-12T10:31:01;52.67;;;32.07;;
3131;SDS011;62090;52.330;9.104;2023-02-12T10:33:36;67.20;;;38.00;;
3131;SDS011;62090;52.330;9.104;2023-02-12T10:36:12;60.13;;;35.70;;
3131;SDS011;62090;52.330;9.104;2023-02-12T10:38:48;50.70;;;31.97;;
3131;SDS011;62090;52.330;9.104;2023-02-12T10:41:23;68.63;;;37.90;;
3131;SDS011;62090;52.330;9.104;2023-02-12T10:43:56;48.20;;;29.27;;
3131;SDS011;62090;52.330;9.104;2023-02-12T10:46:27;45.87;;;29.10;;
3131;SDS011;62090;52.330;9.104;2023-02-12T10:48:58;53.20;;;35.37;;
3131;SDS011;62090;52.330;9.104;2023-02-12T10:51:34;116.43;;;62.37;;
3131;SDS011;62090;52.330;9.104;2023-02-12T10:54:31;62.50;;;36.63;;
3131;SDS011;62090;52.330;9.104;2023-02-12T10:57:07;48.70;;;30.07;;
3131;SDS011;62090;52.330;9.104;2023-02-12T10:59:41;45.10;;;29.47;;
3131;SDS011;62090;52.330;9.104;2023-02-12T11:02:19;50.73;;;30.33;;
3131;SDS011;62090;52.330;9.104;2023-02-12T11:04:51;52.57;;;30.27;;
3131;SDS011;62090;52.330;9.104;2023-02-12T11:07:22;46.77;;;29.13;;
3131;SDS011;62090;52.330;9.104;2023-02-12T11:09:53;45.73;;;28.70;;
3131;SDS011;62090;52.330;9.104;2023-02-12T11:12:31;51.03;;;27.80;;
3131;SDS011;62090;52.330;9.104;2023-02-12T11:15:06;48.67;;;29.30;;
3131;SDS011;62090;52.330;9.104;2023-02-12T11:17:44;45.20;;;27.67;;
3131;SDS011;62090;52.330;9.104;2023-02-12T11:20:25;42.87;;;26.87;;
3131;SDS011;62090;52.330;9.104;2023-02-12T11:22:57;42.97;;;26.40;;
3131;SDS011;62090;52.330;9.104;2023-02-12T11:25:29;43.90;;;27.93;;
3131;SDS011;62090;52.330;9.104;2023-02-12T11:28:11;39.57;;;25.70;;
3131;SDS011;62090;52.330;9.104;2023-02-12T11:30:51;39.17;;;25.00;;
3131;SDS011;62090;52.330;9.104;2023-02-12T11:33:27;38.67;;;24.63;;
3131;SDS011;62090;52.330;9.104;2023-02-12T11:36:00;41.30;;;26.30;;
3131;SDS011;62090;52.330;9.104;2023-02-12T11:38:34;37.13;;;22.80;;
3131;SDS011;62090;52.330;9.104;2023-02-12T11:41:14;35.50;;;23.33;;
3131;SDS011;62090;52.330;9.104;2023-02-12T11:43:56;37.23;;;25.00;;
3131;SDS011;62090;52.330;9.104;2023-02-12T11:46:26;40.53;;;24.40;;
3131;SDS011;62090;52.330;9.104;2023-02-12T11:48:57;33.60;;;22.30;;
3131;SDS011;62090;52.330;9.104;2023-02-12T11:51:28;38.87;;;23.67;;
3131;SDS011;62090;52.330;9.104;2023-02-12T11:53:59;41.30;;;23.60;;
3131;SDS011;62090;52.330;9.104;2023-02-12T11:56:41;35.00;;;22.63;;
3131;SDS011;62090;52.330;9.104;2023-02-12T11:59:20;39.70;;;25.27;;
3131;SDS011;62090;52.330;9.104;2023-02-12T12:01:59;35.30;;;23.77;;
3131;SDS011;62090;52.330;9.104;2023-02-12T12:04:34;33.37;;;24.07;;
3131;SDS011;62090;52.330;9.104;2023-02-12T12:07:07;37.10;;;23.30;;
3131;SDS011;62090;52.330;9.104;2023-02-12T12:09:42;30.03;;;20.80;;
3131;SDS011;62090;52.330;9.104;2023-02-12T12:12:18;30.40;;;21.00;;
3131;SDS011;62090;52.330;9.104;2023-02-12T12:14:55;36.10;;;20.87;;
3131;SDS011;62090;52.330;9.104;2023-02-12T12:17:42;30.43;;;19.30;;
3131;SDS011;62090;52.330;9.104;2023-02-12T12:20:30;33.00;;;22.40;;
3131;SDS011;62090;52.330;9.104;2023-02-12T12:23:06;27.43;;;18.00;;
3131;SDS011;62090;52.330;9.104;2023-02-12T12:25:45;24.23;;;15.57;;
3131;SDS011;62090;52.330;9.104;2023-02-12T12:28:24;22.40;;;15.10;;
3131;SDS011;62090;52.330;9.104;2023-02-12T12:31:03;21.50;;;13.73;;
3131;SDS011;62090;52.330;9.104;2023-02-12T12:33:37;22.53;;;15.20;;
3131;SDS011;62090;52.330;9.104;2023-02-12T12:36:22;21.10;;;14.33;;
3131;SDS011;62090;52.330;9.104;2023-02-12T12:39:16;23.70;;;14.40;;
3131;SDS011;62090;52.330;9.104;2023-02-12T12:44:50;17.27;;;11.53;;
3131;SDS011;62090;52.330;9.104;2023-02-12T12:47:36;18.70;;;11.20;;
3131;SDS011;62090;52.330;9.104;2023-02-12T12:50:20;18.37;;;13.27;;
3131;SDS011;62090;52.330;9.104;2023-02-12T12:53:11;17.87;;;10.73;;
3131;SDS011;62090;52.330;9.104;2023-02-12T12:56:03;16.50;;;10.30;;
3131;SDS011;62090;52.330;9.104;2023-02-12T12:58:45;13.50;;;10.40;;
3131;SDS011;62090;52.330;9.104;2023-02-12T13:01:36;14.87;;;10.97;;
3131;SDS011;62090;52.330;9.104;2023-02-12T13:07:28;15.83;;;10.87;;
3131;SDS011;62090;52.330;9.104;2023-02-12T13:10:14;17.10;;;10.77;;
3131;SDS011;62090;52.330;9.104;2023-02-12T13:12:55;19.60;;;11.60;;
3131;SDS011;62090;52.330;9.104;2023-02-12T13:15:32;16.20;;;11.20;;
3131;SDS011;62090;52.330;9.104;2023-02-12T13:18:13;13.77;;;10.50;;
3131;SDS011;62090;52.330;9.104;2023-02-12T13:20:55;13.20;;;10.67;;
3131;SDS011;62090;52.330;9.104;2023-02-12T13:23:33;15.50;;;9.90;;
3131;SDS011;62090;52.330;9.104;2023-02-12T13:26:10;13.60;;;10.27;;
3131;SDS011;62090;52.330;9.104;2023-02-12T13:28:45;15.00;;;9.50;;
3131;SDS011;62090;52.330;9.104;2023-02-12T13:31:20;14.17;;;10.27;;
3131;SDS011;62090;52.330;9.104;2023-02-12T13:34:01;14.30;;;9.97;;
3131;SDS011;62090;52.330;9.104;2023-02-12T13:36:37;13.53;;;9.40;;
3131;SDS011;62090;52.330;9.104;2023-02-12T13:39:13;13.63;;;9.00;;
3131;SDS011;62090;52.330;9.104;2023-02-12T13:41:55;10.47;;;8.40;;
3131;SDS011;62090;52.330;9.104;2023-02-12T13:44:34;14.10;;;8.60;;
3131;SDS011;62090;52.330;9.104;2023-02-12T13:47:13;11.57;;;8.40;;
3131;SDS011;62090;52.330;9.104;2023-02-12T13:49:49;11.03;;;7.40;;
3131;SDS011;62090;52.330;9.104;2023-02-12T13:52:27;11.30;;;7.07;;
3131;SDS011;62090;52.330;9.104;2023-02-12T13:55:15;10.30;;;8.37;;
3131;SDS011;62090;52.330;9.104;2023-02-12T14:00:55;9.40;;;6.70;;
3131;SDS011;62090;52.330;9.104;2023-02-12T14:03:26;9.80;;;7.97;;
3131;SDS011;62090;52.330;9.104;2023-02-12T14:06:10;11.50;;;7.37;;
3131;SDS011;62090;52.330;9.104;2023-02-12T14:08:46;9.60;;;7.87;;
3131;SDS011;62090;52.330;9.104;2023-02-12T14:11:21;10.10;;;7.53;;
3131;SDS011;62090;52.330;9.104;2023-02-12T14:13:55;10.13;;;7.53;;
3131;SDS011;62090;52.330;9.104;2023-02-12T14:16:36;8.60;;;6.90;;
3131;SDS011;62090;52.330;9.104;2023-02-12T14:28:18;9.63;;;7.43;;
3131;SDS011;62090;52.330;9.104;2023-02-12T14:33:50;13.90;;;8.10;;
3131;SDS011;62090;52.330;9.104;2023-02-12T14:36:42;10.20;;;8.10;;
3131;SDS011;62090;52.330;9.104;2023-02-12T14:45:28;10.27;;;7.60;;
3131;SDS011;62090;52.330;9.104;2023-02-12T14:48:00;12.30;;;8.87;;
3131;SDS011;62090;52.330;9.104;2023-02-12T14:50:36;11.13;;;8.17;;
3131;SDS011;62090;52.330;9.104;2023-02-12T14:53:22;12.63;;;7.50;;
3131;SDS011;62090;52.330;9.104;2023-02-12T14:55:57;18.87;;;7.50;;
3131;SDS011;62090;52.330;9.104;2023-02-12T14:58:28;9.50;;;7.67;;
3131;SDS011;62090;52.330;9.104;2023-02-12T15:01:01;8.80;;;7.70;;
3131;SDS011;62090;52.330;9.104;2023-02-12T15:03:37;8.23;;;7.13;;
3131;SDS011;62090;52.330;9.104;2023-02-12T15:06:12;7.73;;;5.97;;
3131;SDS011;62090;52.330;9.104;2023-02-12T15:08:47;7.83;;;6.23;;
3131;SDS011;62090;52.330;9.104;2023-02-12T15:11:23;9.40;;;6.17;;
3131;SDS011;62090;52.330;9.104;2023-02-12T15:13:58;6.03;;;5.43;;
3131;SDS011;62090;52.330;9.104;2023-02-12T15:16:40;8.37;;;6.23;;
3131;SDS011;62090;52.330;9.104;2023-02-12T15:19:31;7.67;;;6.13;;
3131;SDS011;62090;52.330;9.104;2023-02-12T15:22:20;8.43;;;6.40;;
3131;SDS011;62090;52.330;9.104;2023-02-12T15:24:52;10.50;;;8.43;;
3131;SDS011;62090;52.330;9.104;2023-02-12T15:27:22;11.00;;;8.57;;
3131;SDS011;62090;52.330;9.104;2023-02-12T15:29:52;11.90;;;7.30;;
3131;SDS011;62090;52.330;9.104;2023-02-12T15:32:26;9.13;;;6.40;;
3131;SDS011;62090;52.330;9.104;2023-02-12T15:34:58;8.00;;;6.37;;
3131;SDS011;62090;52.330;9.104;2023-02-12T15:37:28;8.30;;;6.07;;
3131;SDS011;62090;52.330;9.104;2023-02-12T15:39:59;11.10;;;5.57;;
3131;SDS011;62090;52.330;9.104;2023-02-12T15:42:35;8.90;;;6.20;;
3131;SDS011;62090;52.330;9.104;2023-02-12T15:45:18;9.00;;;6.73;;
3131;SDS011;62090;52.330;9.104;2023-02-12T15:48:02;8.97;;;6.93;;
3131;SDS011;62090;52.330;9.104;2023-02-12T15:50:50;6.90;;;5.57;;